sensor_id;sensor_type;location;lat;lon;timestamp;P1;durP1;ratioP1;P2;durP2;ratioP2
14342;SDS011;7255;53.596;9.960;2022-10-03T00:00:37;20.98;;;4.40;;
14342;SDS011;7255;53.596;9.960;2022-10-03T00:03:18;16.55;;;3.78;;
14342;SDS011;7255;53.596;9.960;2022-10-03T00:06:01;16.77;;;3.50;;
14342;SDS011;7255;53.596;9.960;2022-10-03T00:08:39;12.02;;;3.50;;
14342;SDS011;7255;53.596;9.960;2022-10-03T00:11:29;17.10;;;4.35;;
14342;SDS011;7255;53.596;9.960;2022-10-03T00:14:05;17.65;;;3.25;;
14342;SDS011;7255;53.596;9.960;2022-10-03T00:16:43;15.60;;;3.58;;
14342;SDS011;7255;53.596;9.960;2022-10-03T00:19:19;17.17;;;4.10;;
14342;SDS011;7255;53.596;9.960;2022-10-03T00:21:58;17.98;;;3.80;;
14342;SDS011;7255;53.596;9.960;2022-10-03T00:24:37;12.45;;;3.70;;
14342;SDS011;7255;53.596;9.960;2022-10-03T00:27:14;14.43;;;3.87;;
14342;SDS011;7255;53.596;9.960;2022-10-03T00:29:55;18.25;;;4.78;;
14342;SDS011;7255;53.596;9.960;2022-10-03T00:32:40;16.65;;;3.40;;
14342;SDS011;7255;53.596;9.960;2022-10-03T00:35:20;13.13;;;3.33;;
14342;SDS011;7255;53.596;9.960;2022-10-03T00:38:03;17.80;;;3.90;;
14342;SDS011;7255;53.596;9.960;2022-10-03T00:40:59;14.45;;;5.18;;
14342;SDS011;7255;53.596;9.960;2022-10-03T00:46:45;20.08;;;3.25;;
14342;SDS011;7255;53.596;9.960;2022-10-03T00:49:41;17.83;;;3.35;;
14342;SDS011;7255;53.596;9.960;2022-10-03T00:52:27;20.08;;;3.08;;
14342;SDS011;7255;53.596;9.960;2022-10-03T00:55:05;13.52;;;3.47;;
14342;SDS011;7255;53.596;9.960;2022-10-03T00:57:49;19.70;;;4.20;;
14342;SDS011;7255;53.596;9.960;2022-10-03T01:00:26;15.18;;;3.33;;
14342;SDS011;7255;53.596;9.960;2022-10-03T01:03:04;16.77;;;4.20;;
14342;SDS011;7255;53.596;9.960;2022-10-03T01:05:59;13.18;;;3.05;;
14342;SDS011;7255;53.596;9.960;2022-10-03T01:08:47;17.70;;;3.05;;
14342;SDS011;7255;53.596;9.960;2022-10-03T01:11:34;13.98;;;4.25;;
14342;SDS011;7255;53.596;9.960;2022-10-03T01:14:10;16.98;;;3.40;;
14342;SDS011;7255;53.596;9.960;2022-10-03T01:16:52;9.90;;;3.28;;
14342;SDS011;7255;53.596;9.960;2022-10-03T01:19:33;11.18;;;2.80;;
14342;SDS011;7255;53.596;9.960;2022-10-03T01:22:27;20.60;;;4.15;;
14342;SDS011;7255;53.596;9.960;2022-10-03T01:25:10;18.92;;;3.55;;
14342;SDS011;7255;53.596;9.960;2022-10-03T01:27:45;21.85;;;3.85;;
14342;SDS011;7255;53.596;9.960;2022-10-03T01:30:41;16.40;;;3.03;;
14342;SDS011;7255;53.596;9.960;2022-10-03T01:33:14;17.05;;;3.05;;
14342;SDS011;7255;53.596;9.960;2022-10-03T01:35:49;15.50;;;3.45;;
14342;SDS011;7255;53.596;9.960;2022-10-03T01:38:24;13.77;;;3.10;;
14342;SDS011;7255;53.596;9.960;2022-10-03T01:40:58;14.30;;;2.60;;
14342;SDS011;7255;53.596;9.960;2022-10-03T01:43:31;14.23;;;2.90;;
14342;SDS011;7255;53.596;9.960;2022-10-03T01:46:06;13.90;;;3.60;;
14342;SDS011;7255;53.596;9.960;2022-10-03T01:48:39;17.73;;;4.05;;
14342;SDS011;7255;53.596;9.960;2022-10-03T01:51:13;14.85;;;4.07;;
14342;SDS011;7255;53.596;9.960;2022-10-03T01:53:49;15.95;;;3.33;;
14342;SDS011;7255;53.596;9.960;2022-10-03T01:56:26;18.30;;;3.30;;
14342;SDS011;7255;53.596;9.960;2022-10-03T01:59:02;12.35;;;2.87;;
14342;SDS011;7255;53.596;9.960;2022-10-03T02:01:35;17.73;;;3.12;;
14342;SDS011;7255;53.596;9.960;2022-10-03T02:04:11;15.68;;;3.28;;
14342;SDS011;7255;53.596;9.960;2022-10-03T02:06:44;16.33;;;3.45;;
14342;SDS011;7255;53.596;9.960;2022-10-03T02:09:24;7.25;;;3.00;;
14342;SDS011;7255;53.596;9.960;2022-10-03T02:12:00;16.12;;;3.37;;
14342;SDS011;7255;53.596;9.960;2022-10-03T02:14:34;14.00;;;4.10;;
14342;SDS011;7255;53.596;9.960;2022-10-03T02:17:18;14.70;;;3.20;;
14342;SDS011;7255;53.596;9.960;2022-10-03T02:19:55;16.48;;;3.35;;
14342;SDS011;7255;53.596;9.960;2022-10-03T02:22:28;13.48;;;3.72;;
14342;SDS011;7255;53.596;9.960;2022-10-03T02:25:02;17.08;;;3.25;;
14342;SDS011;7255;53.596;9.960;2022-10-03T02:30:45;16.00;;;3.55;;
14342;SDS011;7255;53.596;9.960;2022-10-03T02:36:34;18.40;;;3.97;;
14342;SDS011;7255;53.596;9.960;2022-10-03T02:45:54;10.38;;;2.70;;
14342;SDS011;7255;53.596;9.960;2022-10-03T02:52:03;6.05;;;2.83;;
14342;SDS011;7255;53.596;9.960;2022-10-03T02:54:52;17.37;;;4.00;;
14342;SDS011;7255;53.596;9.960;2022-10-03T03:00:51;16.85;;;3.17;;
14342;SDS011;7255;53.596;9.960;2022-10-03T03:03:44;16.10;;;2.87;;
14342;SDS011;7255;53.596;9.960;2022-10-03T03:06:34;16.15;;;3.35;;
14342;SDS011;7255;53.596;9.960;2022-10-03T03:09:25;10.73;;;3.08;;
14342;SDS011;7255;53.596;9.960;2022-10-03T03:12:25;18.17;;;3.50;;
14342;SDS011;7255;53.596;9.960;2022-10-03T03:18:11;13.45;;;2.90;;
14342;SDS011;7255;53.596;9.960;2022-10-03T03:20:53;12.20;;;2.72;;
14342;SDS011;7255;53.596;9.960;2022-10-03T03:23:41;17.30;;;3.20;;
14342;SDS011;7255;53.596;9.960;2022-10-03T03:26:36;13.23;;;2.35;;
14342;SDS011;7255;53.596;9.960;2022-10-03T03:29:17;13.45;;;2.85;;
14342;SDS011;7255;53.596;9.960;2022-10-03T03:31:51;10.48;;;2.87;;
14342;SDS011;7255;53.596;9.960;2022-10-03T03:34:28;12.60;;;2.75;;
14342;SDS011;7255;53.596;9.960;2022-10-03T03:37:00;17.02;;;3.53;;
14342;SDS011;7255;53.596;9.960;2022-10-03T03:39:37;15.65;;;3.67;;
14342;SDS011;7255;53.596;9.960;2022-10-03T03:42:23;16.62;;;2.87;;
14342;SDS011;7255;53.596;9.960;2022-10-03T03:45:15;13.38;;;3.40;;
14342;SDS011;7255;53.596;9.960;2022-10-03T03:48:04;12.82;;;3.05;;
14342;SDS011;7255;53.596;9.960;2022-10-03T03:50:54;17.20;;;2.83;;
14342;SDS011;7255;53.596;9.960;2022-10-03T03:56:44;9.93;;;2.75;;
14342;SDS011;7255;53.596;9.960;2022-10-03T03:59:30;12.05;;;2.78;;
14342;SDS011;7255;53.596;9.960;2022-10-03T04:02:10;17.00;;;3.17;;
14342;SDS011;7255;53.596;9.960;2022-10-03T04:04:53;11.07;;;2.83;;
14342;SDS011;7255;53.596;9.960;2022-10-03T04:07:30;12.50;;;2.80;;
14342;SDS011;7255;53.596;9.960;2022-10-03T04:10:11;15.98;;;3.05;;
14342;SDS011;7255;53.596;9.960;2022-10-03T04:13:02;13.07;;;3.03;;
14342;SDS011;7255;53.596;9.960;2022-10-03T04:18:45;16.27;;;3.28;;
14342;SDS011;7255;53.596;9.960;2022-10-03T04:21:29;12.50;;;2.85;;
14342;SDS011;7255;53.596;9.960;2022-10-03T04:24:07;14.02;;;3.70;;
14342;SDS011;7255;53.596;9.960;2022-10-03T04:26:49;15.70;;;2.87;;
14342;SDS011;7255;53.596;9.960;2022-10-03T04:29:36;12.82;;;3.10;;
14342;SDS011;7255;53.596;9.960;2022-10-03T04:32:10;15.50;;;3.30;;
14342;SDS011;7255;53.596;9.960;2022-10-03T04:34:49;16.75;;;3.35;;
14342;SDS011;7255;53.596;9.960;2022-10-03T04:37:30;17.58;;;3.33;;
14342;SDS011;7255;53.596;9.960;2022-10-03T04:40:16;12.05;;;2.72;;
14342;SDS011;7255;53.596;9.960;2022-10-03T04:42:53;17.92;;;3.15;;
14342;SDS011;7255;53.596;9.960;2022-10-03T04:45:39;17.50;;;2.92;;
14342;SDS011;7255;53.596;9.960;2022-10-03T04:48:21;13.40;;;3.53;;
14342;SDS011;7255;53.596;9.960;2022-10-03T04:50:57;16.40;;;3.22;;
14342;SDS011;7255;53.596;9.960;2022-10-03T04:53:39;15.52;;;3.65;;
14342;SDS011;7255;53.596;9.960;2022-10-03T04:56:25;16.15;;;3.12;;
14342;SDS011;7255;53.596;9.960;2022-10-03T04:59:00;15.82;;;3.10;;
14342;SDS011;7255;53.596;9.960;2022-10-03T05:01:38;14.07;;;3.33;;
14342;SDS011;7255;53.596;9.960;2022-10-03T05:04:14;13.05;;;3.37;;
14342;SDS011;7255;53.596;9.960;2022-10-03T05:06:54;15.93;;;3.70;;
14342;SDS011;7255;53.596;9.960;2022-10-03T05:09:32;10.35;;;3.58;;
14342;SDS011;7255;53.596;9.960;2022-10-03T05:12:06;19.48;;;4.55;;
14342;SDS011;7255;53.596;9.960;2022-10-03T05:14:43;14.27;;;3.45;;
14342;SDS011;7255;53.596;9.960;2022-10-03T05:17:19;18.75;;;3.67;;
14342;SDS011;7255;53.596;9.960;2022-10-03T05:19:53;18.80;;;3.45;;
14342;SDS011;7255;53.596;9.960;2022-10-03T05:22:31;16.20;;;3.37;;
14342;SDS011;7255;53.596;9.960;2022-10-03T05:25:13;15.00;;;4.20;;
14342;SDS011;7255;53.596;9.960;2022-10-03T05:27:49;18.12;;;5.28;;
14342;SDS011;7255;53.596;9.960;2022-10-03T05:30:19;15.00;;;4.00;;
14342;SDS011;7255;53.596;9.960;2022-10-03T05:33:01;14.82;;;3.67;;
14342;SDS011;7255;53.596;9.960;2022-10-03T05:35:38;17.92;;;3.97;;
14342;SDS011;7255;53.596;9.960;2022-10-03T05:38:25;15.25;;;3.10;;
14342;SDS011;7255;53.596;9.960;2022-10-03T05:41:07;12.05;;;3.90;;
14342;SDS011;7255;53.596;9.960;2022-10-03T05:43:45;16.87;;;3.62;;
14342;SDS011;7255;53.596;9.960;2022-10-03T05:46:28;17.55;;;3.83;;
14342;SDS011;7255;53.596;9.960;2022-10-03T05:49:12;23.42;;;4.03;;
14342;SDS011;7255;53.596;9.960;2022-10-03T05:51:56;13.35;;;3.45;;
14342;SDS011;7255;53.596;9.960;2022-10-03T05:54:46;16.08;;;3.97;;
14342;SDS011;7255;53.596;9.960;2022-10-03T05:57:33;21.73;;;4.00;;
14342;SDS011;7255;53.596;9.960;2022-10-03T06:00:17;19.15;;;4.07;;
14342;SDS011;7255;53.596;9.960;2022-10-03T06:02:53;20.77;;;3.75;;
14342;SDS011;7255;53.596;9.960;2022-10-03T06:05:36;17.77;;;3.78;;
14342;SDS011;7255;53.596;9.960;2022-10-03T06:08:33;22.20;;;3.95;;
14342;SDS011;7255;53.596;9.960;2022-10-03T06:11:48;21.35;;;4.07;;
14342;SDS011;7255;53.596;9.960;2022-10-03T06:14:48;16.42;;;4.12;;
14342;SDS011;7255;53.596;9.960;2022-10-03T06:17:36;14.55;;;3.67;;
14342;SDS011;7255;53.596;9.960;2022-10-03T06:23:46;15.27;;;4.03;;
14342;SDS011;7255;53.596;9.960;2022-10-03T06:32:24;16.27;;;3.55;;
14342;SDS011;7255;53.596;9.960;2022-10-03T06:35:30;16.00;;;3.85;;
14342;SDS011;7255;53.596;9.960;2022-10-03T06:38:35;12.15;;;3.20;;
14342;SDS011;7255;53.596;9.960;2022-10-03T06:44:23;17.23;;;3.30;;
14342;SDS011;7255;53.596;9.960;2022-10-03T06:47:11;14.35;;;3.20;;
14342;SDS011;7255;53.596;9.960;2022-10-03T06:49:58;19.65;;;4.43;;
14342;SDS011;7255;53.596;9.960;2022-10-03T06:52:57;15.60;;;3.87;;
14342;SDS011;7255;53.596;9.960;2022-10-03T06:55:46;23.38;;;3.37;;
14342;SDS011;7255;53.596;9.960;2022-10-03T07:01:45;21.80;;;4.07;;
14342;SDS011;7255;53.596;9.960;2022-10-03T07:04:36;15.55;;;3.40;;
14342;SDS011;7255;53.596;9.960;2022-10-03T07:07:25;12.93;;;4.22;;
14342;SDS011;7255;53.596;9.960;2022-10-03T07:10:20;22.10;;;3.30;;
14342;SDS011;7255;53.596;9.960;2022-10-03T07:13:10;14.70;;;3.20;;
14342;SDS011;7255;53.596;9.960;2022-10-03T07:16:05;17.45;;;3.90;;
14342;SDS011;7255;53.596;9.960;2022-10-03T07:19:13;8.77;;;2.60;;
14342;SDS011;7255;53.596;9.960;2022-10-03T07:28:18;12.85;;;2.47;;
14342;SDS011;7255;53.596;9.960;2022-10-03T07:31:13;13.52;;;2.90;;
14342;SDS011;7255;53.596;9.960;2022-10-03T07:37:03;9.85;;;2.65;;
14342;SDS011;7255;53.596;9.960;2022-10-03T07:40:15;10.43;;;3.00;;
14342;SDS011;7255;53.596;9.960;2022-10-03T07:43:10;11.95;;;2.78;;
14342;SDS011;7255;53.596;9.960;2022-10-03T07:46:24;14.57;;;3.70;;
14342;SDS011;7255;53.596;9.960;2022-10-03T07:49:19;9.98;;;2.55;;
14342;SDS011;7255;53.596;9.960;2022-10-03T07:52:13;9.05;;;2.20;;
14342;SDS011;7255;53.596;9.960;2022-10-03T07:57:58;9.75;;;2.97;;
14342;SDS011;7255;53.596;9.960;2022-10-03T08:00:39;11.23;;;2.72;;
14342;SDS011;7255;53.596;9.960;2022-10-03T08:03:34;15.48;;;2.83;;
14342;SDS011;7255;53.596;9.960;2022-10-03T08:06:26;8.23;;;2.58;;
14342;SDS011;7255;53.596;9.960;2022-10-03T08:09:06;11.02;;;2.67;;
14342;SDS011;7255;53.596;9.960;2022-10-03T08:11:53;11.02;;;2.70;;
14342;SDS011;7255;53.596;9.960;2022-10-03T08:14:59;12.95;;;2.60;;
14342;SDS011;7255;53.596;9.960;2022-10-03T08:20:56;9.68;;;2.60;;
14342;SDS011;7255;53.596;9.960;2022-10-03T08:23:32;8.50;;;2.22;;
14342;SDS011;7255;53.596;9.960;2022-10-03T08:26:41;13.05;;;2.60;;
14342;SDS011;7255;53.596;9.960;2022-10-03T08:32:30;10.05;;;2.65;;
14342;SDS011;7255;53.596;9.960;2022-10-03T08:38:13;9.55;;;2.58;;
14342;SDS011;7255;53.596;9.960;2022-10-03T08:50:18;14.23;;;2.92;;
14342;SDS011;7255;53.596;9.960;2022-10-03T08:53:10;13.98;;;2.78;;
14342;SDS011;7255;53.596;9.960;2022-10-03T08:55:57;9.85;;;2.37;;
14342;SDS011;7255;53.596;9.960;2022-10-03T09:01:36;11.45;;;3.20;;
14342;SDS011;7255;53.596;9.960;2022-10-03T09:04:31;10.13;;;2.78;;
14342;SDS011;7255;53.596;9.960;2022-10-03T09:07:28;9.48;;;2.92;;
14342;SDS011;7255;53.596;9.960;2022-10-03T09:10:33;12.98;;;2.53;;
14342;SDS011;7255;53.596;9.960;2022-10-03T09:16:16;11.40;;;2.58;;
14342;SDS011;7255;53.596;9.960;2022-10-03T09:19:03;15.65;;;2.75;;
14342;SDS011;7255;53.596;9.960;2022-10-03T09:21:55;8.77;;;2.67;;
14342;SDS011;7255;53.596;9.960;2022-10-03T09:24:59;9.32;;;3.17;;
14342;SDS011;7255;53.596;9.960;2022-10-03T09:27:45;7.28;;;2.12;;
14342;SDS011;7255;53.596;9.960;2022-10-03T09:30:40;13.68;;;3.55;;
14342;SDS011;7255;53.596;9.960;2022-10-03T09:36:33;7.18;;;2.12;;
14342;SDS011;7255;53.596;9.960;2022-10-03T09:39:48;8.55;;;3.05;;
14342;SDS011;7255;53.596;9.960;2022-10-03T09:42:30;12.20;;;2.45;;
14342;SDS011;7255;53.596;9.960;2022-10-03T09:45:15;10.88;;;2.72;;
14342;SDS011;7255;53.596;9.960;2022-10-03T09:47:59;11.23;;;3.30;;
14342;SDS011;7255;53.596;9.960;2022-10-03T09:50:52;9.68;;;2.40;;
14342;SDS011;7255;53.596;9.960;2022-10-03T09:53:55;12.40;;;2.50;;
14342;SDS011;7255;53.596;9.960;2022-10-03T09:56:55;13.50;;;2.78;;
14342;SDS011;7255;53.596;9.960;2022-10-03T09:59:47;11.88;;;2.62;;
14342;SDS011;7255;53.596;9.960;2022-10-03T10:02:38;9.00;;;2.42;;
14342;SDS011;7255;53.596;9.960;2022-10-03T10:05:28;7.62;;;1.98;;
14342;SDS011;7255;53.596;9.960;2022-10-03T10:11:11;8.48;;;2.30;;
14342;SDS011;7255;53.596;9.960;2022-10-03T10:14:03;8.50;;;2.33;;
14342;SDS011;7255;53.596;9.960;2022-10-03T10:16:55;9.15;;;2.20;;
14342;SDS011;7255;53.596;9.960;2022-10-03T10:19:49;7.85;;;2.53;;
14342;SDS011;7255;53.596;9.960;2022-10-03T10:22:47;7.57;;;2.28;;
14342;SDS011;7255;53.596;9.960;2022-10-03T10:25:36;10.18;;;2.30;;
14342;SDS011;7255;53.596;9.960;2022-10-03T10:28:29;11.60;;;2.33;;
14342;SDS011;7255;53.596;9.960;2022-10-03T10:34:44;6.35;;;2.08;;
14342;SDS011;7255;53.596;9.960;2022-10-03T10:37:58;8.00;;;1.70;;
14342;SDS011;7255;53.596;9.960;2022-10-03T10:40:49;7.15;;;1.83;;
14342;SDS011;7255;53.596;9.960;2022-10-03T10:43:55;6.85;;;2.40;;
14342;SDS011;7255;53.596;9.960;2022-10-03T10:47:04;7.60;;;1.73;;
14342;SDS011;7255;53.596;9.960;2022-10-03T11:02:47;6.18;;;2.10;;
14342;SDS011;7255;53.596;9.960;2022-10-03T11:06:11;3.80;;;1.62;;
14342;SDS011;7255;53.596;9.960;2022-10-03T11:15:47;9.95;;;2.05;;
14342;SDS011;7255;53.596;9.960;2022-10-03T11:21:58;6.00;;;1.77;;
14342;SDS011;7255;53.596;9.960;2022-10-03T11:25:09;6.20;;;1.85;;
14342;SDS011;7255;53.596;9.960;2022-10-03T11:28:13;8.00;;;1.75;;
14342;SDS011;7255;53.596;9.960;2022-10-03T11:31:17;9.65;;;2.45;;
14342;SDS011;7255;53.596;9.960;2022-10-03T11:37:28;7.82;;;2.10;;
14342;SDS011;7255;53.596;9.960;2022-10-03T11:40:10;6.03;;;2.20;;
14342;SDS011;7255;53.596;9.960;2022-10-03T11:42:49;8.50;;;2.78;;
14342;SDS011;7255;53.596;9.960;2022-10-03T11:45:24;6.75;;;2.40;;
14342;SDS011;7255;53.596;9.960;2022-10-03T11:48:01;6.07;;;2.08;;
14342;SDS011;7255;53.596;9.960;2022-10-03T11:50:47;8.07;;;2.90;;
14342;SDS011;7255;53.596;9.960;2022-10-03T11:53:20;9.25;;;2.65;;
14342;SDS011;7255;53.596;9.960;2022-10-03T11:55:57;10.23;;;2.12;;
14342;SDS011;7255;53.596;9.960;2022-10-03T11:58:37;8.07;;;2.33;;
14342;SDS011;7255;53.596;9.960;2022-10-03T12:01:20;9.32;;;2.62;;
14342;SDS011;7255;53.596;9.960;2022-10-03T12:03:54;8.00;;;2.37;;
14342;SDS011;7255;53.596;9.960;2022-10-03T12:06:31;8.98;;;2.58;;
14342;SDS011;7255;53.596;9.960;2022-10-03T12:09:31;9.05;;;2.47;;
14342;SDS011;7255;53.596;9.960;2022-10-03T12:12:09;9.60;;;2.30;;
14342;SDS011;7255;53.596;9.960;2022-10-03T12:14:41;9.90;;;2.72;;
14342;SDS011;7255;53.596;9.960;2022-10-03T12:17:12;6.90;;;2.08;;
14342;SDS011;7255;53.596;9.960;2022-10-03T12:19:44;6.97;;;2.47;;
14342;SDS011;7255;53.596;9.960;2022-10-03T12:22:30;7.75;;;2.53;;
14342;SDS011;7255;53.596;9.960;2022-10-03T12:25:12;7.68;;;2.92;;
14342;SDS011;7255;53.596;9.960;2022-10-03T12:27:46;9.75;;;2.37;;
14342;SDS011;7255;53.596;9.960;2022-10-03T12:30:21;6.75;;;2.20;;
14342;SDS011;7255;53.596;9.960;2022-10-03T12:32:54;8.32;;;2.15;;
14342;SDS011;7255;53.596;9.960;2022-10-03T12:35:36;7.68;;;2.40;;
14342;SDS011;7255;53.596;9.960;2022-10-03T12:38:15;10.40;;;2.70;;
14342;SDS011;7255;53.596;9.960;2022-10-03T12:40:53;7.78;;;2.22;;
14342;SDS011;7255;53.596;9.960;2022-10-03T12:43:38;8.30;;;2.25;;
14342;SDS011;7255;53.596;9.960;2022-10-03T12:46:16;9.93;;;1.92;;
14342;SDS011;7255;53.596;9.960;2022-10-03T12:48:54;9.75;;;2.70;;
14342;SDS011;7255;53.596;9.960;2022-10-03T12:51:32;7.55;;;2.25;;
14342;SDS011;7255;53.596;9.960;2022-10-03T12:54:13;5.70;;;1.98;;
14342;SDS011;7255;53.596;9.960;2022-10-03T12:56:53;9.35;;;2.33;;
14342;SDS011;7255;53.596;9.960;2022-10-03T12:59:34;7.15;;;1.90;;
14342;SDS011;7255;53.596;9.960;2022-10-03T13:02:13;5.55;;;2.10;;
14342;SDS011;7255;53.596;9.960;2022-10-03T13:04:52;7.18;;;2.53;;
14342;SDS011;7255;53.596;9.960;2022-10-03T13:07:34;11.48;;;2.20;;
14342;SDS011;7255;53.596;9.960;2022-10-03T13:10:13;11.23;;;3.00;;
14342;SDS011;7255;53.596;9.960;2022-10-03T13:12:51;9.77;;;2.55;;
14342;SDS011;7255;53.596;9.960;2022-10-03T13:18:40;5.70;;;2.35;;
14342;SDS011;7255;53.596;9.960;2022-10-03T13:21:15;9.13;;;2.20;;
14342;SDS011;7255;53.596;9.960;2022-10-03T13:23:46;7.32;;;2.42;;
14342;SDS011;7255;53.596;9.960;2022-10-03T13:26:19;12.55;;;2.20;;
14342;SDS011;7255;53.596;9.960;2022-10-03T13:29:02;12.37;;;2.37;;
14342;SDS011;7255;53.596;9.960;2022-10-03T13:31:40;8.98;;;2.40;;
14342;SDS011;7255;53.596;9.960;2022-10-03T13:34:20;9.95;;;2.47;;
14342;SDS011;7255;53.596;9.960;2022-10-03T13:36:52;6.37;;;2.15;;
14342;SDS011;7255;53.596;9.960;2022-10-03T13:39:23;6.53;;;2.17;;
14342;SDS011;7255;53.596;9.960;2022-10-03T13:42:05;8.77;;;2.33;;
14342;SDS011;7255;53.596;9.960;2022-10-03T13:44:45;6.43;;;2.10;;
14342;SDS011;7255;53.596;9.960;2022-10-03T13:47:26;7.20;;;2.10;;
14342;SDS011;7255;53.596;9.960;2022-10-03T13:50:12;9.38;;;2.30;;
14342;SDS011;7255;53.596;9.960;2022-10-03T13:52:43;8.90;;;2.42;;
14342;SDS011;7255;53.596;9.960;2022-10-03T13:55:15;13.45;;;3.35;;
14342;SDS011;7255;53.596;9.960;2022-10-03T13:57:49;10.43;;;3.10;;
14342;SDS011;7255;53.596;9.960;2022-10-03T14:00:24;7.05;;;1.98;;
14342;SDS011;7255;53.596;9.960;2022-10-03T14:02:59;11.02;;;2.42;;
14342;SDS011;7255;53.596;9.960;2022-10-03T14:08:35;5.07;;;1.92;;
14342;SDS011;7255;53.596;9.960;2022-10-03T14:11:27;9.65;;;2.33;;
14342;SDS011;7255;53.596;9.960;2022-10-03T14:17:00;8.85;;;2.37;;
14342;SDS011;7255;53.596;9.960;2022-10-03T14:19:35;6.28;;;2.08;;
14342;SDS011;7255;53.596;9.960;2022-10-03T14:25:07;4.07;;;1.73;;
14342;SDS011;7255;53.596;9.960;2022-10-03T14:27:46;5.82;;;2.08;;
14342;SDS011;7255;53.596;9.960;2022-10-03T14:30:17;11.05;;;2.33;;
14342;SDS011;7255;53.596;9.960;2022-10-03T14:32:47;5.57;;;2.20;;
14342;SDS011;7255;53.596;9.960;2022-10-03T14:35:26;9.82;;;2.30;;
14342;SDS011;7255;53.596;9.960;2022-10-03T14:38:03;8.40;;;2.40;;
14342;SDS011;7255;53.596;9.960;2022-10-03T14:40:41;7.97;;;2.20;;
14342;SDS011;7255;53.596;9.960;2022-10-03T14:43:18;8.98;;;2.70;;
14342;SDS011;7255;53.596;9.960;2022-10-03T14:45:54;10.15;;;2.35;;
14342;SDS011;7255;53.596;9.960;2022-10-03T14:48:23;5.75;;;2.12;;
14342;SDS011;7255;53.596;9.960;2022-10-03T14:50:54;9.02;;;2.55;;
14342;SDS011;7255;53.596;9.960;2022-10-03T14:53:29;15.20;;;2.60;;
14342;SDS011;7255;53.596;9.960;2022-10-03T14:55:59;13.62;;;2.50;;
14342;SDS011;7255;53.596;9.960;2022-10-03T14:58:30;10.23;;;2.70;;
14342;SDS011;7255;53.596;9.960;2022-10-03T15:01:01;14.65;;;2.50;;
14342;SDS011;7255;53.596;9.960;2022-10-03T15:03:35;10.40;;;2.33;;
14342;SDS011;7255;53.596;9.960;2022-10-03T15:06:19;15.70;;;3.12;;
14342;SDS011;7255;53.596;9.960;2022-10-03T15:08:47;10.38;;;2.50;;
14342;SDS011;7255;53.596;9.960;2022-10-03T15:11:21;9.25;;;2.67;;
14342;SDS011;7255;53.596;9.960;2022-10-03T15:13:52;10.73;;;2.65;;
14342;SDS011;7255;53.596;9.960;2022-10-03T15:16:21;11.25;;;3.05;;
14342;SDS011;7255;53.596;9.960;2022-10-03T15:18:50;8.10;;;2.50;;
14342;SDS011;7255;53.596;9.960;2022-10-03T15:21:20;10.57;;;2.53;;
14342;SDS011;7255;53.596;9.960;2022-10-03T15:23:48;8.73;;;2.58;;
14342;SDS011;7255;53.596;9.960;2022-10-03T15:26:22;8.57;;;2.30;;
14342;SDS011;7255;53.596;9.960;2022-10-03T15:28:52;9.07;;;2.20;;
14342;SDS011;7255;53.596;9.960;2022-10-03T15:31:25;10.23;;;2.65;;
14342;SDS011;7255;53.596;9.960;2022-10-03T15:33:57;10.93;;;2.70;;
14342;SDS011;7255;53.596;9.960;2022-10-03T15:36:27;6.07;;;2.12;;
14342;SDS011;7255;53.596;9.960;2022-10-03T15:38:57;9.38;;;2.70;;
14342;SDS011;7255;53.596;9.960;2022-10-03T15:41:30;7.10;;;2.05;;
14342;SDS011;7255;53.596;9.960;2022-10-03T15:44:02;9.48;;;2.12;;
14342;SDS011;7255;53.596;9.960;2022-10-03T15:46:31;9.15;;;2.40;;
14342;SDS011;7255;53.596;9.960;2022-10-03T15:49:00;12.43;;;2.80;;
14342;SDS011;7255;53.596;9.960;2022-10-03T15:51:32;5.97;;;1.77;;
14342;SDS011;7255;53.596;9.960;2022-10-03T15:54:02;6.85;;;2.25;;
14342;SDS011;7255;53.596;9.960;2022-10-03T15:56:35;11.43;;;2.45;;
14342;SDS011;7255;53.596;9.960;2022-10-03T15:59:05;9.85;;;2.60;;
14342;SDS011;7255;53.596;9.960;2022-10-03T16:01:36;6.43;;;2.30;;
14342;SDS011;7255;53.596;9.960;2022-10-03T16:04:06;8.52;;;2.85;;
14342;SDS011;7255;53.596;9.960;2022-10-03T16:06:42;5.22;;;2.20;;
14342;SDS011;7255;53.596;9.960;2022-10-03T16:09:15;8.88;;;2.72;;
14342;SDS011;7255;53.596;9.960;2022-10-03T16:11:53;8.32;;;2.17;;
14342;SDS011;7255;53.596;9.960;2022-10-03T16:14:29;9.75;;;2.78;;
14342;SDS011;7255;53.596;9.960;2022-10-03T16:17:06;7.70;;;2.47;;
14342;SDS011;7255;53.596;9.960;2022-10-03T16:19:41;12.02;;;2.78;;
14342;SDS011;7255;53.596;9.960;2022-10-03T16:22:13;10.20;;;2.75;;
14342;SDS011;7255;53.596;9.960;2022-10-03T16:24:46;5.87;;;2.17;;
14342;SDS011;7255;53.596;9.960;2022-10-03T16:27:17;7.75;;;2.62;;
14342;SDS011;7255;53.596;9.960;2022-10-03T16:29:51;12.18;;;2.28;;
14342;SDS011;7255;53.596;9.960;2022-10-03T16:32:23;11.27;;;3.15;;
14342;SDS011;7255;53.596;9.960;2022-10-03T16:34:53;10.05;;;1.83;;
14342;SDS011;7255;53.596;9.960;2022-10-03T16:37:26;6.20;;;2.28;;
14342;SDS011;7255;53.596;9.960;2022-10-03T16:39:54;13.38;;;3.62;;
14342;SDS011;7255;53.596;9.960;2022-10-03T16:42:26;6.57;;;2.45;;
14342;SDS011;7255;53.596;9.960;2022-10-03T16:45:04;8.15;;;3.25;;
14342;SDS011;7255;53.596;9.960;2022-10-03T16:47:43;6.82;;;2.55;;
14342;SDS011;7255;53.596;9.960;2022-10-03T16:50:19;9.30;;;2.22;;
14342;SDS011;7255;53.596;9.960;2022-10-03T16:52:50;11.30;;;3.08;;
14342;SDS011;7255;53.596;9.960;2022-10-03T16:55:20;14.32;;;3.58;;
14342;SDS011;7255;53.596;9.960;2022-10-03T16:57:50;12.55;;;3.45;;
14342;SDS011;7255;53.596;9.960;2022-10-03T17:00:21;10.95;;;2.78;;
14342;SDS011;7255;53.596;9.960;2022-10-03T17:02:52;13.15;;;3.03;;
14342;SDS011;7255;53.596;9.960;2022-10-03T17:05:20;9.98;;;3.45;;
14342;SDS011;7255;53.596;9.960;2022-10-03T17:07:49;11.27;;;2.53;;
14342;SDS011;7255;53.596;9.960;2022-10-03T17:10:26;9.35;;;3.03;;
14342;SDS011;7255;53.596;9.960;2022-10-03T17:12:59;13.73;;;3.22;;
14342;SDS011;7255;53.596;9.960;2022-10-03T17:15:29;12.73;;;3.75;;
14342;SDS011;7255;53.596;9.960;2022-10-03T17:18:03;14.68;;;3.60;;
14342;SDS011;7255;53.596;9.960;2022-10-03T17:20:40;10.43;;;2.95;;
14342;SDS011;7255;53.596;9.960;2022-10-03T17:23:14;10.43;;;2.67;;
14342;SDS011;7255;53.596;9.960;2022-10-03T17:25:54;11.25;;;3.45;;
14342;SDS011;7255;53.596;9.960;2022-10-03T17:28:28;13.00;;;2.97;;
14342;SDS011;7255;53.596;9.960;2022-10-03T17:31:01;14.10;;;3.30;;
14342;SDS011;7255;53.596;9.960;2022-10-03T17:33:31;10.65;;;2.58;;
14342;SDS011;7255;53.596;9.960;2022-10-03T17:36:14;11.93;;;2.62;;
14342;SDS011;7255;53.596;9.960;2022-10-03T17:39:00;8.60;;;2.67;;
14342;SDS011;7255;53.596;9.960;2022-10-03T17:41:30;14.50;;;2.80;;
14342;SDS011;7255;53.596;9.960;2022-10-03T17:44:03;10.88;;;2.95;;
14342;SDS011;7255;53.596;9.960;2022-10-03T17:46:42;11.55;;;3.28;;
14342;SDS011;7255;53.596;9.960;2022-10-03T17:49:19;10.88;;;3.70;;
14342;SDS011;7255;53.596;9.960;2022-10-03T17:51:49;13.27;;;3.22;;
14342;SDS011;7255;53.596;9.960;2022-10-03T17:54:18;8.25;;;2.50;;
14342;SDS011;7255;53.596;9.960;2022-10-03T17:56:51;13.43;;;2.90;;
14342;SDS011;7255;53.596;9.960;2022-10-03T17:59:22;13.18;;;2.85;;
14342;SDS011;7255;53.596;9.960;2022-10-03T18:01:54;15.90;;;2.95;;
14342;SDS011;7255;53.596;9.960;2022-10-03T18:04:26;13.27;;;2.70;;
14342;SDS011;7255;53.596;9.960;2022-10-03T18:06:59;13.32;;;3.65;;
14342;SDS011;7255;53.596;9.960;2022-10-03T18:09:28;8.02;;;3.25;;
14342;SDS011;7255;53.596;9.960;2022-10-03T18:12:08;11.52;;;3.12;;
14342;SDS011;7255;53.596;9.960;2022-10-03T18:14:43;11.57;;;2.90;;
14342;SDS011;7255;53.596;9.960;2022-10-03T18:17:22;14.00;;;3.25;;
14342;SDS011;7255;53.596;9.960;2022-10-03T18:20:02;14.13;;;3.58;;
14342;SDS011;7255;53.596;9.960;2022-10-03T18:22:46;11.68;;;2.80;;
14342;SDS011;7255;53.596;9.960;2022-10-03T18:25:21;11.43;;;2.78;;
14342;SDS011;7255;53.596;9.960;2022-10-03T18:28:15;15.23;;;3.45;;
14342;SDS011;7255;53.596;9.960;2022-10-03T18:30:49;13.18;;;2.83;;